createdAt,value
2023-10-20T00:00:17.275Z,99134.03
2023-10-20T00:02:45.460Z,99122.38
2023-10-20T00:05:15.323Z,99131.31
2023-10-20T00:07:43.564Z,99141.78
2023-10-20T00:10:12.822Z,99151.47
2023-10-20T00:12:41.311Z,99151.09
2023-10-20T00:15:15.594Z,99156.91
2023-10-20T00:17:45.563Z,99155.78
2023-10-20T00:20:14.199Z,99151.47
2023-10-20T00:22:42.797Z,99150.69
2023-10-20T00:25:12.688Z,99146.03
2023-10-20T00:27:40.837Z,99146.03
2023-10-20T00:30:10.965Z,99150.69
2023-10-20T00:32:41.357Z,99153.06
2023-10-20T00:35:11.613Z,99144.13
2023-10-20T00:37:39.773Z,99140.59
2023-10-20T00:40:10.859Z,99135.97
2023-10-20T00:42:39.260Z,99141.41
2023-10-20T00:45:08.310Z,99149.91
2023-10-20T00:47:38.254Z,99145.25
2023-10-20T00:50:07.891Z,99142.97
2023-10-20T00:52:38.180Z,99132.44
2023-10-20T00:55:08.638Z,99127.81
2023-10-20T00:57:37.512Z,99120.81
2023-10-20T01:00:10.143Z,99122.38
2023-10-20T01:02:38.644Z,99108.81
2023-10-20T01:05:08.155Z,99117.31
2023-10-20T01:07:37.904Z,99113.44
2023-10-20T01:10:07.349Z,99106.44
2023-10-20T01:12:35.477Z,99116.16
2023-10-20T01:15:03.620Z,99108.00
2023-10-20T01:17:32.678Z,99095.59
2023-10-20T01:20:03.131Z,99104.50
2023-10-20T01:22:31.443Z,99095.59
2023-10-20T01:25:01.261Z,99088.97
2023-10-20T01:27:30.018Z,99095.59
2023-10-20T01:29:58.126Z,99097.13
2023-10-20T01:32:26.183Z,99102.56
2023-10-20T01:34:54.240Z,99109.94
2023-10-20T01:37:22.324Z,99107.59
2023-10-20T01:39:50.301Z,99095.59
2023-10-20T01:42:19.853Z,99090.16
2023-10-20T01:44:48.838Z,99090.53
2023-10-20T01:47:16.797Z,99079.28
2023-10-20T01:49:44.846Z,99078.47
2023-10-20T01:52:13.104Z,99080.06
2023-10-20T01:54:41.118Z,99066.84
2023-10-20T01:57:10.372Z,99082.00
2023-10-20T01:59:39.895Z,99075.75
2023-10-20T02:02:08.278Z,99073.84
2023-10-20T02:04:36.611Z,99070.69
2023-10-20T02:07:04.703Z,99059.81
2023-10-20T02:09:32.705Z,99051.31
2023-10-20T02:12:00.720Z,99047.81
2023-10-20T02:14:28.736Z,99050.53
2023-10-20T02:16:58.699Z,99035.00
2023-10-20T02:19:27.838Z,99041.25
2023-10-20T02:21:56.448Z,99041.25
2023-10-20T02:24:24.476Z,99046.69
2023-10-20T02:26:52.434Z,99056.75
2023-10-20T02:29:20.388Z,99061.41
2023-10-20T02:31:48.369Z,99052.47
2023-10-20T02:34:17.848Z,99045.88
2023-10-20T02:36:46.140Z,99038.53
2023-10-20T02:39:15.179Z,99033.09
2023-10-20T02:41:43.243Z,99034.25
2023-10-20T02:44:11.278Z,99028.81
2023-10-20T02:46:40.190Z,99028.03
2023-10-20T02:49:08.244Z,99022.97
2023-10-20T02:51:38.070Z,99017.94
2023-10-20T02:54:06.440Z,99010.94
2023-10-20T02:56:34.626Z,99006.66
2023-10-20T02:59:02.908Z,99004.72
2023-10-20T03:01:31.898Z,99008.22
2023-10-20T03:04:00.042Z,99010.16
2023-10-20T03:06:28.278Z,99014.81
2023-10-20T03:08:57.777Z,99010.16
2023-10-20T03:11:26.004Z,99023.75
2023-10-20T03:13:54.058Z,99014.81
2023-10-20T03:16:22.593Z,99009.38
2023-10-20T03:18:50.621Z,99018.69
2023-10-20T03:21:19.474Z,99008.59
2023-10-20T03:23:47.507Z,99007.03
2023-10-20T03:26:17.060Z,99022.16
2023-10-20T03:28:46.106Z,99010.53
2023-10-20T03:31:14.169Z,99008.59
2023-10-20T03:33:42.264Z,98995.81
2023-10-20T03:36:10.685Z,98995.81
2023-10-20T03:38:39.281Z,98987.66
2023-10-20T03:41:08.649Z,98985.72
2023-10-20T03:43:38.377Z,98980.28
2023-10-20T03:46:06.773Z,98975.97
2023-10-20T03:48:36.436Z,98976.34
2023-10-20T03:51:07.257Z,98982.59
2023-10-20T03:53:47.549Z,98969.78
2023-10-20T03:56:20.482Z,98970.91
2023-10-20T03:58:50.454Z,98970.91
2023-10-20T04:01:18.533Z,98972.50
2023-10-20T04:03:52.467Z,98969.00
2023-10-20T04:06:21.740Z,98964.34
2023-10-20T04:08:50.241Z,98969.00
2023-10-20T04:11:18.732Z,98954.63
2023-10-20T04:13:46.886Z,98937.53
2023-10-20T04:16:18.744Z,98935.19
2023-10-20T04:18:48.343Z,98936.41
2023-10-20T04:21:16.429Z,98935.59
2023-10-20T04:23:45.922Z,98923.97
2023-10-20T04:26:22.092Z,98925.53
2023-10-20T04:29:04.221Z,98915.03
2023-10-20T04:31:51.108Z,98917.75
2023-10-20T04:34:36.569Z,98921.63
2023-10-20T04:37:22.404Z,98916.19
2023-10-20T04:40:07.981Z,98906.88
2023-10-20T04:43:06.913Z,98906.88
2023-10-20T04:45:52.267Z,98921.25
2023-10-20T04:48:39.137Z,98920.84
2023-10-20T04:51:20.119Z,98921.63
2023-10-20T04:53:53.919Z,98935.19
2023-10-20T04:56:41.669Z,98930.56
2023-10-20T04:59:22.685Z,98921.63
2023-10-20T05:01:51.217Z,98920.06
2023-10-20T05:04:25.014Z,98921.63
2023-10-20T05:06:59.693Z,98930.13
2023-10-20T05:09:27.950Z,98935.56
2023-10-20T05:11:56.721Z,98945.28
2023-10-20T05:14:24.796Z,98928.22
2023-10-20T05:16:53.028Z,98934.78
2023-10-20T05:19:22.487Z,98932.06
2023-10-20T05:21:50.770Z,98932.84
2023-10-20T05:24:18.954Z,98937.50
2023-10-20T05:26:48.039Z,98932.84
2023-10-20T05:29:16.546Z,98938.28
2023-10-20T05:31:45.171Z,98939.84
2023-10-20T05:34:14.323Z,98937.13
2023-10-20T05:36:43.902Z,98944.53
2023-10-20T05:39:15.452Z,98952.66
2023-10-20T05:41:45.215Z,98947.22
2023-10-20T05:44:16.005Z,98946.06
2023-10-20T05:46:44.344Z,98943.34
2023-10-20T05:49:12.350Z,98930.94
2023-10-20T05:51:40.446Z,98936.00
2023-10-20T05:54:10.385Z,98928.22
2023-10-20T05:56:38.669Z,98929.00
2023-10-20T05:59:06.814Z,98933.66
2023-10-20T06:01:34.875Z,98939.09
2023-10-20T06:04:03.224Z,98942.56
2023-10-20T06:06:32.449Z,98929.00
2023-10-20T06:09:00.491Z,98927.41
2023-10-20T06:11:29.907Z,98923.94
2023-10-20T06:13:57.893Z,98930.94
2023-10-20T06:16:26.561Z,98921.63
2023-10-20T06:18:54.662Z,98902.97
2023-10-20T06:21:24.448Z,98904.91
2023-10-20T06:23:52.877Z,98899.84
2023-10-20T06:26:22.044Z,98891.34
2023-10-20T06:28:52.185Z,98874.25
2023-10-20T06:31:39.408Z,98875.03
2023-10-20T06:34:18.994Z,98878.53
2023-10-20T06:36:49.903Z,98865.31
2023-10-20T06:39:20.331Z,98868.81
2023-10-20T06:41:48.797Z,98880.47
2023-10-20T06:44:18.616Z,98878.53
2023-10-20T06:46:46.946Z,98874.25
2023-10-20T06:49:20.206Z,98862.59
2023-10-20T06:51:49.441Z,98852.53
2023-10-20T06:54:17.721Z,98855.63
2023-10-20T06:56:46.132Z,98857.16
2023-10-20T06:59:16.542Z,98864.53
2023-10-20T07:01:46.399Z,98859.47
2023-10-20T07:04:14.898Z,98852.91
2023-10-20T07:06:43.121Z,98846.28
2023-10-20T07:09:15.170Z,98846.28
2023-10-20T07:11:44.463Z,98838.53
2023-10-20T07:14:12.869Z,98841.25
2023-10-20T07:16:40.934Z,98837.75
2023-10-20T07:19:10.840Z,98828.81
2023-10-20T07:21:38.964Z,98832.31
2023-10-20T07:24:08.632Z,98828.47
2023-10-20T07:26:37.182Z,98824.16
2023-10-20T07:29:05.652Z,98822.22
2023-10-20T07:31:33.745Z,98829.59
2023-10-20T07:34:03.407Z,98818.75
2023-10-20T07:36:33.496Z,98815.66
2023-10-20T07:39:01.553Z,98812.16
2023-10-20T07:41:29.683Z,98793.16
2023-10-20T07:44:00.179Z,98782.28
2023-10-20T07:46:28.224Z,98786.91
2023-10-20T07:48:56.327Z,98784.19
2023-10-20T07:51:24.567Z,98786.91
2023-10-20T07:53:54.378Z,98802.44
2023-10-20T07:56:22.527Z,98795.06
2023-10-20T07:58:50.740Z,98802.44
2023-10-20T08:01:20.951Z,98795.88
2023-10-20T08:03:50.800Z,98778.00
2023-10-20T08:06:19.411Z,98776.06
2023-10-20T08:08:47.947Z,98772.56
2023-10-20T08:11:17.791Z,98779.94
2023-10-20T08:13:51.950Z,98768.69
2023-10-20T08:16:22.728Z,98766.00
2023-10-20T08:18:52.482Z,98765.19
2023-10-20T08:21:20.724Z,98760.94
2023-10-20T08:23:48.994Z,98755.50
2023-10-20T08:26:21.085Z,98754.31
2023-10-20T08:28:50.728Z,98757.03
2023-10-20T08:31:19.932Z,98753.56
2023-10-20T08:33:49.869Z,98750.84
2023-10-20T08:36:18.609Z,98758.59
2023-10-20T08:38:48.481Z,98770.22
2023-10-20T08:41:19.379Z,98783.44
2023-10-20T08:43:48.196Z,98772.56
2023-10-20T08:46:17.439Z,98777.59
2023-10-20T08:48:46.031Z,98774.88
2023-10-20T08:51:17.746Z,98774.88
2023-10-20T08:53:47.493Z,98753.16
2023-10-20T08:56:16.040Z,98741.50
2023-10-20T08:58:48.905Z,98750.44
2023-10-20T09:01:17.791Z,98752.34
2023-10-20T09:03:46.911Z,98760.50
2023-10-20T09:06:16.535Z,98764.00
2023-10-20T09:08:45.268Z,98752.34
2023-10-20T09:11:13.686Z,98753.16
2023-10-20T09:13:47.593Z,98739.56
2023-10-20T09:16:17.619Z,98736.84
2023-10-20T09:18:47.718Z,98731.44
2023-10-20T09:21:16.637Z,98719.75
2023-10-20T09:23:55.448Z,98715.13
2023-10-20T09:26:23.975Z,98713.56
2023-10-20T09:28:54.733Z,98699.97
2023-10-20T09:31:25.299Z,98703.09
2023-10-20T09:33:53.641Z,98708.91
2023-10-20T09:36:24.343Z,98723.28
2023-10-20T09:38:54.258Z,98723.28
2023-10-20T09:41:24.068Z,98726.00
2023-10-20T09:43:54.911Z,98714.31
2023-10-20T09:46:43.011Z,98715.13
2023-10-20T09:49:15.878Z,98723.28
2023-10-20T09:51:46.783Z,98713.94
2023-10-20T09:54:15.376Z,98708.91
2023-10-20T09:56:45.750Z,98700.38
2023-10-20T09:59:19.887Z,98689.88
2023-10-20T10:01:50.234Z,98684.44
2023-10-20T10:04:27.104Z,98679.44
2023-10-20T10:06:55.150Z,98670.88
2023-10-20T10:09:23.334Z,98677.09
2023-10-20T10:11:56.289Z,98670.88
2023-10-20T10:14:27.187Z,98668.97
2023-10-20T10:16:59.684Z,98660.81
2023-10-20T10:19:29.396Z,98660.81
2023-10-20T10:22:01.147Z,98656.53
2023-10-20T10:27:04.228Z,98646.03
2023-10-20T10:29:52.324Z,98646.81
2023-10-20T10:32:23.783Z,98644.09
2023-10-20T10:34:57.567Z,98649.53
2023-10-20T10:37:31.597Z,98654.19
2023-10-20T10:40:10.655Z,98649.53
2023-10-20T10:42:40.478Z,98634.41
2023-10-20T10:45:19.776Z,98633.22
2023-10-20T10:47:49.445Z,98640.59
2023-10-20T10:50:18.235Z,98632.81
2023-10-20T10:52:47.213Z,98647.97
2023-10-20T10:55:15.756Z,98642.53
2023-10-20T10:57:43.874Z,98648.75
2023-10-20T11:00:17.192Z,98640.59
2023-10-20T11:02:46.451Z,98640.59
2023-10-20T11:05:16.991Z,98634.41
2023-10-20T11:07:57.849Z,98635.94
2023-10-20T11:10:28.418Z,98631.69
2023-10-20T11:12:57.064Z,98621.97
2023-10-20T11:15:28.160Z,98623.53
2023-10-20T11:17:58.779Z,98622.75
2023-10-20T11:20:30.806Z,98612.69
2023-10-20T11:22:59.733Z,98618.88
2023-10-20T11:25:28.004Z,98622.75
2023-10-20T11:27:56.493Z,98626.25
2023-10-20T11:30:27.457Z,98635.16
2023-10-20T11:32:56.295Z,98656.13
2023-10-20T11:35:26.055Z,98670.47
2023-10-20T11:37:56.066Z,98666.22
2023-10-20T11:40:24.546Z,98689.50
2023-10-20T11:42:53.302Z,98691.06
2023-10-20T11:45:22.002Z,98686.00
2023-10-20T11:47:50.061Z,98687.16
2023-10-20T11:50:20.695Z,98691.44
2023-10-20T11:52:51.253Z,98696.88
2023-10-20T11:55:20.668Z,98686.00
2023-10-20T11:57:48.760Z,98684.44
2023-10-20T12:00:18.558Z,98674.38
2023-10-20T12:02:47.102Z,98669.69
2023-10-20T12:05:15.331Z,98661.56
2023-10-20T12:07:44.256Z,98665.03
2023-10-20T12:10:13.950Z,98663.50
2023-10-20T12:12:43.548Z,98658.84
2023-10-20T12:15:13.286Z,98655.34
2023-10-20T12:17:42.578Z,98650.69
2023-10-20T12:20:11.939Z,98641.78
2023-10-20T12:22:40.016Z,98644.50
2023-10-20T12:25:09.333Z,98641.38
2023-10-20T12:27:37.496Z,98639.06
2023-10-20T12:30:11.543Z,98629.75
2023-10-20T12:32:39.553Z,98631.69
2023-10-20T12:35:08.118Z,98625.06
2023-10-20T12:37:36.076Z,98631.69
2023-10-20T12:40:04.697Z,98631.69
2023-10-20T12:42:32.659Z,98629.75
2023-10-20T12:45:01.926Z,98628.97
2023-10-20T12:47:34.734Z,98627.78
2023-10-20T12:50:02.711Z,98626.25
2023-10-20T12:52:30.809Z,98623.16
2023-10-20T12:54:58.767Z,98609.97
2023-10-20T12:57:26.899Z,98591.72
2023-10-20T12:59:55.297Z,98583.94
2023-10-20T13:02:23.398Z,98563.03
2023-10-20T13:04:52.744Z,98535.06
2023-10-20T13:07:21.592Z,98541.28
2023-10-20T13:09:49.615Z,98542.06
2023-10-20T13:12:17.967Z,98544.00
2023-10-20T13:14:45.975Z,98534.28
2023-10-20T13:17:13.962Z,98519.56
2023-10-20T13:19:41.934Z,98518.41
2023-10-20T13:22:13.670Z,98518.00
2023-10-20T13:24:42.712Z,98514.91
2023-10-20T13:27:10.814Z,98509.47
2023-10-20T13:29:39.346Z,98509.47
2023-10-20T13:32:07.698Z,98508.72
2023-10-20T13:34:36.042Z,98519.56
2023-10-20T13:37:05.120Z,98501.31
2023-10-20T13:39:34.726Z,98501.72
2023-10-20T13:42:03.597Z,98509.84
2023-10-20T13:44:31.786Z,98505.19
2023-10-20T13:46:59.914Z,98500.94
2023-10-20T13:49:29.181Z,98505.56
2023-10-20T13:51:57.797Z,98514.50
2023-10-20T13:54:26.942Z,98513.34
2023-10-20T13:56:56.339Z,98510.63
2023-10-20T13:59:24.408Z,98518.78
2023-10-20T14:01:52.531Z,98517.22
2023-10-20T14:04:24.461Z,98506.38
2023-10-20T14:06:53.154Z,98502.84
2023-10-20T14:09:21.535Z,98483.06
2023-10-20T14:11:51.107Z,98491.22
2023-10-20T14:14:20.736Z,98480.38
2023-10-20T14:16:48.784Z,98477.66
2023-10-20T14:19:16.892Z,98472.22
2023-10-20T14:21:44.932Z,98466.78
2023-10-20T14:24:13.034Z,98449.72
2023-10-20T14:26:41.076Z,98449.72
2023-10-20T14:29:09.083Z,98461.34
2023-10-20T14:31:38.563Z,98466.00
2023-10-20T14:34:06.613Z,98468.72
2023-10-20T14:36:35.168Z,98466.00
2023-10-20T14:39:04.015Z,98467.94
2023-10-20T14:41:32.105Z,98472.22
2023-10-20T14:44:00.176Z,98475.31
2023-10-20T14:46:28.170Z,98465.22
2023-10-20T14:48:57.786Z,98471.81
2023-10-20T14:51:25.854Z,98480.75
2023-10-20T14:53:53.964Z,98466.00
2023-10-20T14:56:21.994Z,98457.06
2023-10-20T14:58:49.981Z,98453.59
2023-10-20T15:01:18.036Z,98440.00
2023-10-20T15:03:46.524Z,98434.97
2023-10-20T15:06:16.867Z,98421.78
2023-10-20T15:08:44.920Z,98435.72
2023-10-20T15:11:13.119Z,98448.53
2023-10-20T15:13:41.231Z,98474.53
2023-10-20T15:16:11.089Z,98505.19
2023-10-20T15:18:39.334Z,98518.00
2023-10-20T15:21:07.716Z,98516.03
2023-10-20T15:23:37.230Z,98492.75
2023-10-20T15:26:06.739Z,98485.41
2023-10-20T15:28:35.570Z,98488.13
2023-10-20T15:31:09.054Z,98495.84
2023-10-20T15:33:38.486Z,98502.84
2023-10-20T15:36:07.641Z,98490.41
2023-10-20T15:38:37.258Z,98475.69
2023-10-20T15:41:06.218Z,98477.63
2023-10-20T15:43:34.644Z,98499.34
2023-10-20T15:46:07.883Z,98502.44
2023-10-20T15:48:37.256Z,98508.28
2023-10-20T15:51:06.579Z,98499.75
2023-10-20T15:53:36.212Z,98494.69
2023-10-20T15:56:04.896Z,98491.97
2023-10-20T15:58:33.246Z,98500.13
2023-10-20T16:01:02.137Z,98484.97
2023-10-20T16:03:30.785Z,98474.13
2023-10-20T16:05:58.986Z,98461.34
2023-10-20T16:08:29.161Z,98472.97
2023-10-20T16:10:58.753Z,98468.69
2023-10-20T16:13:26.745Z,98481.50
2023-10-20T16:15:54.818Z,98486.94
2023-10-20T16:18:24.246Z,98508.66
2023-10-20T16:20:52.462Z,98501.66
2023-10-20T16:23:20.555Z,98503.22
2023-10-20T16:25:48.594Z,98502.44
2023-10-20T16:28:18.292Z,98497.78
2023-10-20T16:30:46.352Z,98489.25
2023-10-20T16:33:16.342Z,98493.50
2023-10-20T16:35:48.492Z,98518.75
2023-10-20T16:38:16.729Z,98517.94
2023-10-20T16:40:44.809Z,98514.06
2023-10-20T16:43:14.663Z,98515.22
2023-10-20T16:45:44.099Z,98505.16
2023-10-20T16:48:12.218Z,98500.88
2023-10-20T16:50:40.663Z,98507.88
2023-10-20T16:53:09.350Z,98503.59
2023-10-20T16:55:39.147Z,98530.34
2023-10-20T16:58:07.820Z,98544.31
2023-10-20T17:00:37.250Z,98561.00
2023-10-20T17:03:07.693Z,98548.19
2023-10-20T17:05:38.752Z,98542.75
2023-10-20T17:08:07.268Z,98531.13
2023-10-20T17:10:39.563Z,98527.25
2023-10-20T17:13:07.615Z,98532.69
2023-10-20T17:15:35.866Z,98537.31
2023-10-20T17:18:07.570Z,98546.66
2023-10-20T17:20:40.900Z,98552.06
2023-10-20T17:23:09.849Z,98543.94
2023-10-20T17:25:39.538Z,98530.34
2023-10-20T17:28:07.630Z,98527.66
2023-10-20T17:30:37.921Z,98520.25
2023-10-20T17:33:06.269Z,98519.50
2023-10-20T17:35:34.675Z,98514.06
2023-10-20T17:38:04.250Z,98518.31
2023-10-20T17:40:35.801Z,98522.22
2023-10-20T17:43:03.832Z,98528.41
2023-10-20T17:45:32.063Z,98540.44
2023-10-20T17:48:00.116Z,98543.94
2023-10-20T17:50:28.213Z,98552.06
2023-10-20T17:52:56.227Z,98555.94
2023-10-20T17:55:25.544Z,98555.94
2023-10-20T17:57:53.594Z,98546.66
2023-10-20T18:00:22.877Z,98535.78
2023-10-20T18:02:52.072Z,98526.06
2023-10-20T18:05:20.586Z,98533.06
2023-10-20T18:07:49.010Z,98539.66
2023-10-20T18:10:17.112Z,98539.66
2023-10-20T18:12:47.959Z,98531.50
2023-10-20T18:15:16.116Z,98530.34
2023-10-20T18:17:44.389Z,98540.44
2023-10-20T18:20:13.610Z,98538.50
2023-10-20T18:22:42.689Z,98559.47
2023-10-20T18:25:11.119Z,98562.16
2023-10-20T18:27:39.210Z,98566.03
2023-10-20T18:30:10.730Z,98563.31
2023-10-20T18:32:38.895Z,98559.84
2023-10-20T18:35:07.523Z,98568.38
2023-10-20T18:37:35.633Z,98564.09
2023-10-20T18:40:03.775Z,98559.47
2023-10-20T18:42:33.732Z,98564.88
2023-10-20T18:45:01.797Z,98580.38
2023-10-20T18:47:31.480Z,98599.38
2023-10-20T18:49:59.886Z,98607.94
2023-10-20T18:52:27.956Z,98619.59
2023-10-20T18:54:55.940Z,98630.84
2023-10-20T18:57:24.091Z,98623.84
2023-10-20T18:59:52.140Z,98612.69
2023-10-20T19:02:20.389Z,98619.25
2023-10-20T19:04:50.178Z,98615.38
2023-10-20T19:07:19.811Z,98627.41
2023-10-20T19:09:48.380Z,98628.56
2023-10-20T19:12:16.501Z,98635.16
2023-10-20T19:14:44.570Z,98656.88
2023-10-20T19:17:14.291Z,98648.72
2023-10-20T19:19:43.539Z,98637.88
2023-10-20T19:22:13.014Z,98655.31
2023-10-20T19:24:41.233Z,98639.81
2023-10-20T19:27:12.082Z,98634.38
2023-10-20T19:29:40.156Z,98642.53
2023-10-20T19:32:09.432Z,98643.66
2023-10-20T19:34:37.558Z,98632.06
2023-10-20T19:37:06.100Z,98643.28
2023-10-20T19:39:36.866Z,98629.72
2023-10-20T19:42:15.781Z,98623.53
2023-10-20T19:44:43.987Z,98632.44
2023-10-20T19:47:12.313Z,98630.50
2023-10-20T19:49:40.471Z,98647.22
2023-10-20T19:52:08.607Z,98628.94
2023-10-20T19:54:38.984Z,98635.53
2023-10-20T19:57:07.207Z,98670.47
2023-10-20T19:59:35.651Z,98686.78
2023-10-20T20:02:04.414Z,98692.59
2023-10-20T20:04:35.011Z,98696.50
2023-10-20T20:07:03.512Z,98699.97
2023-10-20T20:09:31.810Z,98682.53
2023-10-20T20:12:01.915Z,98692.22
2023-10-20T20:14:30.314Z,98689.50
2023-10-20T20:17:00.117Z,98680.22
2023-10-20T20:19:28.234Z,98686.41
2023-10-20T20:21:56.401Z,98677.50
2023-10-20T20:24:25.014Z,98699.22
2023-10-20T20:26:53.739Z,98701.56
2023-10-20T20:29:22.911Z,98696.91
2023-10-20T20:31:50.903Z,98698.47
2023-10-20T20:34:18.942Z,98728.34
2023-10-20T20:36:46.958Z,98733.03
2023-10-20T20:39:15.095Z,98722.16
2023-10-20T20:41:43.174Z,98725.66
2023-10-20T20:44:11.164Z,98721.78
2023-10-20T20:46:40.730Z,98722.94
2023-10-20T20:49:08.966Z,98718.63
2023-10-20T20:51:37.378Z,98742.72
2023-10-20T20:54:05.594Z,98748.94
2023-10-20T20:56:33.773Z,98745.44
2023-10-20T20:59:02.635Z,98740.00
2023-10-20T21:01:31.610Z,98750.09
2023-10-20T21:04:02.372Z,98736.91
2023-10-20T21:06:30.780Z,98723.69
2023-10-20T21:08:59.417Z,98700.06
2023-10-20T21:11:27.446Z,98709.75
2023-10-20T21:13:57.210Z,98714.03
2023-10-20T21:16:26.202Z,98698.88
2023-10-20T21:18:54.609Z,98721.41
2023-10-20T21:21:25.675Z,98717.13
2023-10-20T21:23:53.750Z,98717.88
2023-10-20T21:26:22.952Z,98715.19
2023-10-20T21:28:51.148Z,98693.44
2023-10-20T21:31:19.362Z,98688.81
2023-10-20T21:33:47.593Z,98705.88
2023-10-20T21:36:17.020Z,98686.88
2023-10-20T21:38:46.608Z,98674.81
2023-10-20T21:41:17.339Z,98677.53
2023-10-20T21:43:45.380Z,98664.38
2023-10-20T21:46:14.577Z,98653.09
2023-10-20T21:48:42.859Z,98650.38
2023-10-20T21:51:12.846Z,98638.38
2023-10-20T21:53:41.279Z,98648.47
2023-10-20T21:56:11.801Z,98634.88
2023-10-20T21:58:40.083Z,98619.34
2023-10-20T22:01:10.597Z,98611.97
2023-10-20T22:03:40.066Z,98641.09
2023-10-20T22:06:09.261Z,98661.66
2023-10-20T22:08:37.932Z,98676.03
2023-10-20T22:11:06.100Z,98680.69
2023-10-20T22:13:35.600Z,98679.50
2023-10-20T22:16:05.293Z,98688.84
2023-10-20T22:18:33.526Z,98688.84
2023-10-20T22:21:01.644Z,98674.06
2023-10-20T22:23:29.773Z,98678.75
2023-10-20T22:25:57.864Z,98690.38
2023-10-20T22:28:25.042Z,98684.94
2023-10-20T22:30:54.480Z,98702.03
2023-10-20T22:33:22.629Z,98710.19
2023-10-20T22:35:50.893Z,98731.56
2023-10-20T22:38:19.059Z,98744.34
2023-10-20T22:40:47.465Z,98725.31
2023-10-20T22:43:15.512Z,98711.72
2023-10-20T22:45:43.673Z,98720.69
2023-10-20T22:48:13.393Z,98710.59
2023-10-20T22:50:44.226Z,98721.44
2023-10-20T22:53:12.366Z,98713.31
2023-10-20T22:55:40.384Z,98720.69
2023-10-20T22:58:08.476Z,98727.66
2023-10-20T23:00:36.582Z,98733.09
2023-10-20T23:03:04.778Z,98752.91
2023-10-20T23:05:34.768Z,98763.41
2023-10-20T23:08:07.307Z,98765.31
2023-10-20T23:10:35.834Z,98769.59
2023-10-20T23:13:03.948Z,98773.47
2023-10-20T23:15:32.287Z,98775.03
2023-10-20T23:18:00.531Z,98770.38
2023-10-20T23:20:28.706Z,98769.59
2023-10-20T23:23:00.840Z,98779.69
2023-10-20T23:25:28.930Z,98778.53
2023-10-20T23:27:57.039Z,98785.91
2023-10-20T23:30:25.129Z,98805.69
2023-10-20T23:32:53.596Z,98813.06
2023-10-20T23:35:21.844Z,98806.88
2023-10-20T23:37:50.548Z,98797.91
2023-10-20T23:40:20.390Z,98825.50
2023-10-20T23:42:48.407Z,98816.56
2023-10-20T23:45:16.540Z,98812.31
2023-10-20T23:47:44.794Z,98824.72
2023-10-20T23:50:13.328Z,98824.72
2023-10-20T23:52:41.564Z,98818.50
2023-10-20T23:55:09.890Z,98814.66
2023-10-20T23:57:39.457Z,98817.38
